Time;durP1;ratioP1;P1;durP2;ratioP2;P2;SDS_P1;SDS_P2;PMS_P1;PMS_P2;Temp;Humidity;BMP_temperature;BMP_pressure;BME280_temperature;BME280_humidity;BME280_pressure;Samples;Min_cycle;Max_cycle;Signal;HPM_P1;HPM_P2
2020/12/04 00:00:14;;;;;;;0.20;0.10;;;;;;;3.44;100.00;97729.84;5053513;28;20512;-55
2020/12/04 00:02:40;;;;;;;0.20;0.10;;;;;;;3.37;100.00;97720.47;5053536;28;20813;-55
2020/12/04 00:05:07;;;;;;;0.20;0.10;;;;;;;3.36;100.00;97726.66;5053533;28;20451;-55
2020/12/04 00:07:33;;;;;;;0.20;0.10;;;;;;;3.28;100.00;97711.19;5053766;28;20474;-55
2020/12/04 00:10:00;;;;;;;0.50;0.50;;;;;;;3.34;100.00;97709.25;5036832;28;20968;-54
2020/12/04 00:12:26;;;;;;;3.60;3.27;;;;;;;3.47;100.00;97705.22;5052716;28;20511;-54
2020/12/04 00:14:52;;;;;;;0.20;0.20;;;;;;;3.45;100.00;97699.19;5053144;28;20509;-54
2020/12/04 00:17:20;;;;;;;0.30;0.10;;;;;;;3.56;100.00;97699.56;5053024;28;20501;-54
2020/12/04 00:19:46;;;;;;;0.30;0.10;;;;;;;3.43;100.00;97693.13;5045893;28;20459;-54
2020/12/04 00:22:12;;;;;;;0.20;0.20;;;;;;;3.55;100.00;97697.84;5048084;28;20448;-54
2020/12/04 00:24:38;;;;;;;0.30;0.20;;;;;;;3.33;100.00;97695.28;5050136;28;20481;-55
2020/12/04 00:27:04;;;;;;;1.40;1.33;;;;;;;3.29;100.00;97685.84;5053102;28;20466;-54
2020/12/04 00:29:31;;;;;;;0.20;0.20;;;;;;;3.33;100.00;97687.41;5048015;28;20464;-54
2020/12/04 00:31:58;;;;;;;0.20;0.10;;;;;;;3.40;100.00;97686.22;5042154;28;20455;-55
2020/12/04 00:34:25;;;;;;;0.30;0.10;;;;;;;3.21;100.00;97677.41;5052794;28;20496;-55
2020/12/04 00:36:53;;;;;;;0.20;0.10;;;;;;;3.42;100.00;97673.03;5052523;28;20491;-55
2020/12/04 00:39:19;;;;;;;0.20;0.10;;;;;;;3.37;100.00;97667.13;5046462;28;20447;-56
2020/12/04 00:41:45;;;;;;;0.20;0.10;;;;;;;3.35;100.00;97661.94;5045674;28;21001;-54
2020/12/04 00:44:12;;;;;;;0.20;0.10;;;;;;;3.45;100.00;97651.91;5052658;28;20538;-54
2020/12/04 00:46:39;;;;;;;0.20;0.10;;;;;;;3.44;100.00;97644.97;5052275;28;20545;-54
2020/12/04 00:49:05;;;;;;;0.20;0.10;;;;;;;3.43;100.00;97640.63;5046064;28;20460;-54
2020/12/04 00:51:32;;;;;;;0.20;0.20;;;;;;;3.47;100.00;97635.16;5045535;28;20451;-54
2020/12/04 00:53:59;;;;;;;0.67;0.67;;;;;;;3.50;100.00;97629.78;5052253;28;20463;-54
2020/12/04 00:56:33;;;;;;;0.20;0.10;;;;;;;3.48;100.00;97622.91;5050967;28;21011;-55
2020/12/04 00:59:00;;;;;;;0.20;0.10;;;;;;;3.72;100.00;97613.94;5052661;28;20442;-54
2020/12/04 01:01:27;;;;;;;0.20;0.10;;;;;;;3.50;100.00;97616.66;5052123;28;20465;-55
2020/12/04 01:03:53;;;;;;;0.20;0.10;;;;;;;3.70;100.00;97605.28;5052737;28;20443;-54
2020/12/04 01:06:20;;;;;;;0.20;0.10;;;;;;;3.45;100.00;97604.66;5051844;28;20909;-54
2020/12/04 01:08:46;;;;;;;0.20;0.10;;;;;;;3.59;100.00;97599.66;5042159;28;20483;-54
2020/12/04 01:11:13;;;;;;;0.20;0.10;;;;;;;3.37;100.00;97599.72;5047681;28;20504;-54
2020/12/04 01:13:40;;;;;;;0.20;0.10;;;;;;;3.50;100.00;97598.28;5052133;28;20450;-55
2020/12/04 01:16:12;;;;;;;0.20;0.10;;;;;;;3.54;100.00;97596.34;5050850;28;20505;-55
2020/12/04 01:18:40;;;;;;;0.20;0.10;;;;;;;3.37;100.00;97591.84;5041954;28;20522;-55
2020/12/04 01:21:11;;;;;;;0.20;0.10;;;;;;;3.52;100.00;97588.53;5049253;28;20451;-55
2020/12/04 01:23:38;;;;;;;0.20;0.10;;;;;;;3.50;100.00;97572.00;5035021;28;20460;-55
2020/12/04 01:26:04;;;;;;;0.20;0.10;;;;;;;3.45;99.73;97584.50;5049726;28;20846;-55
2020/12/04 01:28:30;;;;;;;0.20;0.10;;;;;;;3.40;100.00;97570.69;5052316;28;20520;-55
2020/12/04 01:30:56;;;;;;;0.20;0.10;;;;;;;3.74;100.00;97572.69;5052015;28;20459;-55
2020/12/04 01:33:22;;;;;;;0.20;0.10;;;;;;;3.55;98.50;97561.28;5051936;28;20572;-55
2020/12/04 01:35:49;;;;;;;0.20;0.10;;;;;;;3.55;99.12;97566.53;5052081;28;20490;-55
2020/12/04 01:38:15;;;;;;;0.20;0.10;;;;;;;3.44;99.50;97561.78;5041440;28;20480;-55
2020/12/04 01:40:41;;;;;;;0.20;0.10;;;;;;;3.66;100.00;97559.03;5050032;28;20928;-55
2020/12/04 01:43:07;;;;;;;0.20;0.10;;;;;;;3.51;98.47;97559.72;5052220;28;20870;-56
2020/12/04 01:45:36;;;;;;;0.20;0.10;;;;;;;3.62;99.23;97560.13;5051686;28;20462;-54
2020/12/04 01:48:05;;;;;;;0.20;0.10;;;;;;;3.69;97.96;97555.41;5051471;28;21001;-56
2020/12/04 01:50:31;;;;;;;0.20;0.10;;;;;;;3.64;98.59;97553.00;5051778;28;20974;-57
2020/12/04 01:52:58;;;;;;;0.20;0.10;;;;;;;4.01;98.34;97554.81;5047644;28;20455;-55
2020/12/04 01:55:25;;;;;;;0.20;0.10;;;;;;;3.79;97.52;97564.59;5038415;28;20989;-55
2020/12/04 01:57:53;;;;;;;0.20;0.10;;;;;;;3.74;98.32;97556.94;5051395;28;20470;-55
2020/12/04 02:00:20;;;;;;;0.20;0.13;;;;;;;4.12;97.86;97568.31;5051602;28;20967;-55
2020/12/04 02:02:47;;;;;;;0.20;0.10;;;;;;;3.96;98.04;97572.56;5051643;28;20552;-55
2020/12/04 02:05:15;;;;;;;0.20;0.10;;;;;;;3.54;99.08;97567.47;5051780;28;20455;-55
2020/12/04 02:08:08;;;;;;;0.20;0.10;;;;;;;3.75;98.91;97557.78;5042909;28;20483;-55
2020/12/04 02:10:44;;;;;;;0.20;0.10;;;;;;;3.91;99.93;97565.81;5037047;28;20466;-55
2020/12/04 02:13:12;;;;;;;0.20;0.10;;;;;;;3.85;98.78;97562.56;5049495;28;20866;-55
2020/12/04 02:15:38;;;;;;;0.20;0.20;;;;;;;3.65;99.42;97546.84;5048552;28;20936;-55
2020/12/04 02:18:06;;;;;;;0.20;0.10;;;;;;;3.50;99.48;97544.91;5051524;28;20550;-55
2020/12/04 02:20:33;;;;;;;0.20;0.10;;;;;;;3.80;99.76;97538.25;5051415;28;20450;-55
2020/12/04 02:22:59;;;;;;;0.20;0.10;;;;;;;3.83;99.28;97532.84;5043199;28;20463;-55
2020/12/04 02:25:25;;;;;;;0.20;0.10;;;;;;;3.74;99.13;97533.28;5051573;28;20454;-56
2020/12/04 02:27:52;;;;;;;0.30;0.30;;;;;;;3.82;100.00;97527.66;5051236;28;20995;-55
2020/12/04 02:30:25;;;;;;;0.20;0.10;;;;;;;3.53;99.34;97516.72;5051212;28;20454;-55
2020/12/04 02:32:51;;;;;;;0.20;0.10;;;;;;;3.61;99.42;97513.75;5051500;28;20453;-55
2020/12/04 02:35:17;;;;;;;0.20;0.10;;;;;;;3.71;100.00;97508.94;5052018;28;21004;-55
2020/12/04 02:37:43;;;;;;;0.20;0.20;;;;;;;3.78;99.90;97505.09;5048322;28;20481;-55
2020/12/04 02:40:09;;;;;;;0.20;0.10;;;;;;;3.58;100.00;97505.19;5042235;28;20490;-55
2020/12/04 02:42:36;;;;;;;0.30;0.20;;;;;;;3.64;100.00;97497.84;5054704;28;20450;-55
2020/12/04 02:45:03;;;;;;;0.20;0.10;;;;;;;3.72;100.00;97482.63;5054979;28;20875;-54
2020/12/04 02:47:29;;;;;;;0.20;0.10;;;;;;;3.62;100.00;97488.34;5034885;28;20879;-55
2020/12/04 02:49:55;;;;;;;0.57;0.57;;;;;;;3.56;100.00;97490.34;5035030;28;20498;-55
2020/12/04 02:52:22;;;;;;;0.20;0.10;;;;;;;3.71;100.00;97501.94;5038288;28;20467;-55
2020/12/04 02:54:49;;;;;;;0.20;0.10;;;;;;;3.78;100.00;97495.44;5041258;28;20837;-56
2020/12/04 02:57:16;;;;;;;0.20;0.10;;;;;;;3.58;100.00;97495.53;5042983;28;20511;-55
2020/12/04 02:59:42;;;;;;;0.20;0.13;;;;;;;3.36;100.00;97492.16;5048476;28;20446;-55
2020/12/04 03:02:09;;;;;;;0.20;0.20;;;;;;;3.59;100.00;97499.00;5054692;28;20463;-56
2020/12/04 03:04:36;;;;;;;0.20;0.10;;;;;;;3.81;100.00;97495.31;5054415;28;20447;-54
2020/12/04 03:07:04;;;;;;;0.20;0.10;;;;;;;3.63;100.00;97492.69;5043306;28;20482;-54
2020/12/04 03:09:30;;;;;;;3.23;2.20;;;;;;;3.61;100.00;97492.75;5049020;28;20458;-54
2020/12/04 03:11:57;;;;;;;0.20;0.10;;;;;;;3.60;100.00;97484.94;5054415;28;20490;-54
2020/12/04 03:14:25;;;;;;;0.20;0.10;;;;;;;3.64;100.00;97476.00;5054409;28;20482;-54
2020/12/04 03:16:52;;;;;;;0.20;0.20;;;;;;;3.90;100.00;97491.41;5054447;28;20526;-53
2020/12/04 03:19:18;;;;;;;0.20;0.10;;;;;;;3.93;100.00;97485.16;5054473;28;20454;-53
2020/12/04 03:21:45;;;;;;;0.20;0.10;;;;;;;3.80;100.00;97490.13;5050510;28;20455;-54
2020/12/04 03:24:11;;;;;;;0.20;0.10;;;;;;;3.78;100.00;97495.44;5044875;28;20963;-54
2020/12/04 03:26:38;;;;;;;0.20;0.10;;;;;;;3.95;100.00;97478.03;5042209;28;20455;-53
2020/12/04 03:29:04;;;;;;;0.20;0.10;;;;;;;3.81;100.00;97479.53;5054038;28;20447;-53
2020/12/04 03:31:30;;;;;;;0.20;0.10;;;;;;;3.62;100.00;97465.56;5054149;28;20455;-53
2020/12/04 03:33:56;;;;;;;0.20;0.10;;;;;;;3.74;100.00;97462.38;5054252;28;20446;-54
2020/12/04 03:36:23;;;;;;;0.20;0.10;;;;;;;3.64;100.00;97465.50;5052447;28;20486;-56
2020/12/04 03:38:49;;;;;;;0.20;0.10;;;;;;;3.90;100.00;97459.88;5051996;28;20529;-54
2020/12/04 03:41:15;;;;;;;0.20;0.20;;;;;;;3.80;100.00;97458.59;5042800;28;20508;-55
2020/12/04 03:43:41;;;;;;;0.30;0.10;;;;;;;3.63;100.00;97455.91;5053972;28;20447;-54
2020/12/04 03:46:09;;;;;;;0.20;0.10;;;;;;;3.63;100.00;97456.75;5053354;28;20956;-54
2020/12/04 03:48:36;;;;;;;0.20;0.10;;;;;;;3.67;100.00;97446.97;5051600;28;20477;-54
2020/12/04 03:51:02;;;;;;;0.63;0.60;;;;;;;3.69;100.00;97442.47;5043770;28;20466;-56
2020/12/04 03:53:29;;;;;;;0.20;0.10;;;;;;;3.63;100.00;97432.28;5036904;28;20924;-55
2020/12/04 03:55:55;;;;;;;0.20;0.20;;;;;;;3.66;100.00;97422.47;5053643;28;21030;-55
2020/12/04 03:58:21;;;;;;;0.20;0.10;;;;;;;3.78;100.00;97421.03;5053624;28;20475;-55
2020/12/04 04:00:47;;;;;;;0.20;0.10;;;;;;;3.80;100.00;97421.81;5053691;28;20500;-55
2020/12/04 04:03:13;;;;;;;0.20;0.10;;;;;;;3.89;100.00;97410.88;5053044;28;20454;-54
2020/12/04 04:05:39;;;;;;;0.20;0.10;;;;;;;4.01;100.00;97410.28;5046254;28;20460;-54
2020/12/04 04:08:06;;;;;;;0.20;0.10;;;;;;;3.94;100.00;97405.38;5049842;28;20544;-54
2020/12/04 04:10:32;;;;;;;0.20;0.10;;;;;;;3.96;100.00;97393.03;5053507;28;20451;-54
2020/12/04 04:12:58;;;;;;;0.20;0.10;;;;;;;4.05;100.00;97390.81;5053377;28;20446;-54
2020/12/04 04:15:24;;;;;;;0.20;0.10;;;;;;;3.91;100.00;97389.78;5053094;28;20833;-55
2020/12/04 04:17:51;;;;;;;0.20;0.10;;;;;;;3.99;100.00;97383.25;5052830;28;20490;-56
2020/12/04 04:20:17;;;;;;;0.20;0.10;;;;;;;3.98;100.00;97384.16;5046633;28;20468;-55
2020/12/04 04:22:46;;;;;;;0.20;0.10;;;;;;;3.93;100.00;97372.16;5043982;28;21050;-55
2020/12/04 04:25:15;;;;;;;0.20;0.10;;;;;;;4.07;100.00;97393.34;5053275;28;20457;-55
2020/12/04 04:27:41;;;;;;;0.20;0.10;;;;;;;4.20;100.00;97378.69;5052612;28;20471;-57
2020/12/04 04:30:09;;;;;;;0.20;0.10;;;;;;;4.04;100.00;97394.38;5053080;28;20849;-59
2020/12/04 04:32:35;;;;;;;0.20;0.10;;;;;;;4.06;100.00;97392.50;5052708;28;20451;-59
2020/12/04 04:35:03;;;;;;;0.20;0.10;;;;;;;4.00;100.00;97394.59;5051223;28;20870;-59
2020/12/04 04:37:29;;;;;;;0.20;0.10;;;;;;;3.98;100.00;97392.06;5051006;28;20556;-59
2020/12/04 04:39:56;;;;;;;0.20;0.10;;;;;;;4.10;100.00;97393.19;5052733;28;20798;-59
2020/12/04 04:42:22;;;;;;;0.20;0.10;;;;;;;4.05;100.00;97403.09;5052261;28;20940;-59
2020/12/04 04:44:49;;;;;;;0.20;0.10;;;;;;;4.09;100.00;97409.91;5052531;28;21007;-59
2020/12/04 04:47:20;;;;;;;0.20;0.10;;;;;;;4.20;100.00;97402.34;5052156;28;20493;-59
2020/12/04 04:49:48;;;;;;;0.20;0.20;;;;;;;4.15;100.00;97406.97;5046918;28;20467;-59
2020/12/04 04:52:16;;;;;;;0.20;0.10;;;;;;;4.18;100.00;97414.72;5046994;28;20884;-59
2020/12/04 04:54:45;;;;;;;0.20;0.10;;;;;;;4.21;100.00;97414.56;5045941;28;20500;-59
2020/12/04 04:57:13;;;;;;;0.20;0.10;;;;;;;4.15;100.00;97422.75;5039385;28;20490;-59
2020/12/04 04:59:42;;;;;;;0.20;0.10;;;;;;;4.10;100.00;97420.34;5051978;28;20447;-59
2020/12/04 05:02:13;;;;;;;0.20;0.10;;;;;;;4.11;100.00;97416.81;5044979;28;20459;-59
2020/12/04 05:04:58;;;;;;;0.20;0.10;;;;;;;4.37;100.00;97420.75;5040733;28;20464;-59
2020/12/04 05:07:30;;;;;;;0.20;0.10;;;;;;;4.40;100.00;97425.03;5052487;28;20466;-59
2020/12/04 05:10:13;;;;;;;0.20;0.17;;;;;;;4.33;100.00;97419.22;5051949;28;20450;-59
2020/12/04 05:12:54;;;;;;;0.20;0.10;;;;;;;4.31;100.00;97428.09;5052034;28;20562;-59
2020/12/04 05:15:25;;;;;;;0.20;0.10;;;;;;;4.24;100.00;97424.06;5052125;28;20533;-55
2020/12/04 05:18:08;;;;;;;1.27;1.27;;;;;;;4.34;100.00;97417.44;5052116;28;20963;-55
2020/12/04 05:20:36;;;;;;;0.20;0.10;;;;;;;4.32;100.00;97425.41;5047367;28;20490;-55
2020/12/04 05:23:02;;;;;;;0.20;0.10;;;;;;;4.50;100.00;97425.38;5045399;28;20882;-55
2020/12/04 05:25:52;;;;;;;0.20;0.10;;;;;;;4.44;100.00;97424.78;5052252;28;20458;-55
2020/12/04 05:28:21;;;;;;;0.20;0.10;;;;;;;4.48;100.00;97430.72;5040802;28;20469;-55
2020/12/04 05:30:51;;;;;;;0.20;0.10;;;;;;;4.47;100.00;97424.63;5050172;28;20469;-55
2020/12/04 05:33:18;;;;;;;0.20;0.10;;;;;;;4.41;100.00;97418.84;5048795;28;20454;-55
2020/12/04 05:35:52;;;;;;;0.20;0.10;;;;;;;4.44;100.00;97418.69;5036497;28;20956;-55
2020/12/04 05:38:19;;;;;;;0.20;0.10;;;;;;;4.41;100.00;97427.56;5052311;28;20466;-55
2020/12/04 05:40:47;;;;;;;0.20;0.20;;;;;;;4.42;100.00;97429.28;5038371;28;20998;-55
2020/12/04 05:43:15;;;;;;;0.20;0.10;;;;;;;4.50;100.00;97428.03;5051957;28;20455;-57
2020/12/04 05:45:41;;;;;;;0.20;0.10;;;;;;;4.47;100.00;97424.63;5048728;28;20466;-56
2020/12/04 05:48:16;;;;;;;0.20;0.10;;;;;;;4.52;100.00;97413.84;5051685;28;20490;-57
2020/12/04 05:50:43;;;;;;;0.20;0.10;;;;;;;4.58;100.00;97420.59;5052123;28;20465;-55
2020/12/04 05:53:10;;;;;;;0.20;0.10;;;;;;;4.72;100.00;97424.22;5038912;28;21010;-55
2020/12/04 05:55:37;;;;;;;0.20;0.10;;;;;;;4.63;100.00;97424.69;5051636;28;20537;-55
2020/12/04 05:58:10;;;;;;;0.20;0.10;;;;;;;4.64;100.00;97423.75;5051670;28;20474;-55
2020/12/04 06:00:36;;;;;;;0.20;0.10;;;;;;;4.63;100.00;97426.47;5035906;28;20455;-55
2020/12/04 06:03:05;;;;;;;0.20;0.10;;;;;;;4.54;100.00;97427.81;5038674;28;20991;-55
2020/12/04 06:05:31;;;;;;;0.20;0.20;;;;;;;4.53;100.00;97420.00;5051736;28;20458;-55
2020/12/04 06:08:02;;;;;;;0.20;0.10;;;;;;;4.64;100.00;97415.88;5051534;28;20504;-55
2020/12/04 06:10:31;;;;;;;0.20;0.10;;;;;;;4.70;100.00;97412.94;5052765;28;20452;-55
2020/12/04 06:12:57;;;;;;;0.20;0.10;;;;;;;4.78;100.00;97415.16;5055126;28;21010;-56
2020/12/04 06:15:27;;;;;;;0.20;0.10;;;;;;;4.84;100.00;97406.13;5046228;28;20468;-55
2020/12/04 06:18:05;;;;;;;0.20;0.10;;;;;;;4.91;100.00;97418.84;5051540;28;20486;-56
2020/12/04 06:20:40;;;;;;;0.20;0.17;;;;;;;4.91;100.00;97421.50;5055471;28;20852;-55
2020/12/04 06:23:15;;;;;;;0.20;0.10;;;;;;;4.94;100.00;97420.50;5048296;28;20940;-55
2020/12/04 06:25:50;;;;;;;0.20;0.10;;;;;;;4.91;100.00;97418.84;5055108;28;20970;-55
2020/12/04 06:28:21;;;;;;;0.20;0.10;;;;;;;4.87;100.00;97416.47;5055346;28;20470;-54
2020/12/04 06:31:01;;;;;;;0.20;0.10;;;;;;;4.87;100.00;97417.31;5042942;28;20459;-54
2020/12/04 06:33:31;;;;;;;0.20;0.13;;;;;;;4.97;100.00;97426.44;5054234;28;20454;-55
2020/12/04 06:35:57;;;;;;;0.20;0.10;;;;;;;5.08;100.00;97430.31;5054730;28;20515;-54
2020/12/04 06:38:33;;;;;;;0.20;0.10;;;;;;;5.04;100.00;97421.69;5055047;28;20474;-54
2020/12/04 06:41:18;;;;;;;0.20;0.20;;;;;;;4.92;100.00;97433.72;5041553;28;20457;-54
2020/12/04 06:43:45;;;;;;;0.30;0.20;;;;;;;4.87;100.00;97429.63;5054884;28;20895;-54
2020/12/04 06:46:31;;;;;;;0.20;0.17;;;;;;;4.89;100.00;97433.03;5044744;28;20960;-55
2020/12/04 06:49:12;;;;;;;0.20;0.10;;;;;;;4.93;100.00;97437.19;5039157;28;20459;-55
2020/12/04 06:51:40;;;;;;;0.20;0.10;;;;;;;4.87;100.00;97438.38;5054190;28;20478;-56
2020/12/04 06:54:07;;;;;;;0.20;0.10;;;;;;;4.84;100.00;97435.91;5042775;28;20462;-54
2020/12/04 06:56:34;;;;;;;0.20;0.10;;;;;;;4.84;100.00;97437.69;5054431;28;20490;-54
2020/12/04 06:59:01;;;;;;;0.20;0.10;;;;;;;4.90;100.00;97437.38;5051585;28;20536;-54
2020/12/04 07:01:27;;;;;;;0.20;0.20;;;;;;;4.93;100.00;97448.56;5049452;28;20508;-54
2020/12/04 07:04:04;;;;;;;0.20;0.10;;;;;;;4.93;100.00;97453.00;5054657;28;20994;-54
2020/12/04 07:06:30;;;;;;;0.20;0.10;;;;;;;4.89;100.00;97452.31;5054417;28;20538;-55
2020/12/04 07:09:01;;;;;;;0.20;0.20;;;;;;;4.90;100.00;97456.63;5054110;28;20477;-54
2020/12/04 07:11:28;;;;;;;0.20;0.10;;;;;;;4.81;100.00;97459.75;5054574;28;20454;-54
2020/12/04 07:13:54;;;;;;;0.20;0.10;;;;;;;4.83;100.00;97459.69;5050365;28;20466;-55
2020/12/04 07:16:20;;;;;;;0.20;0.20;;;;;;;4.77;100.00;97460.81;5051325;28;20996;-54
2020/12/04 07:18:52;;;;;;;0.20;0.20;;;;;;;4.82;100.00;97468.50;5054188;28;20471;-55
2020/12/04 07:21:26;;;;;;;0.20;0.10;;;;;;;4.94;100.00;97454.72;5054014;28;20940;-54
2020/12/04 07:23:54;;;;;;;0.20;0.10;;;;;;;4.76;100.00;97457.34;5047353;28;20442;-55
2020/12/04 07:26:21;;;;;;;0.20;0.10;;;;;;;4.74;100.00;97458.34;5054274;28;20508;-54
2020/12/04 07:28:47;;;;;;;0.20;0.10;;;;;;;4.82;100.00;97466.72;5054287;28;20520;-55
2020/12/04 07:31:17;;;;;;;0.20;0.17;;;;;;;4.85;100.00;97473.59;5052268;28;20463;-55
2020/12/04 07:33:55;;;;;;;0.20;0.13;;;;;;;4.87;100.00;97479.63;5040895;28;20456;-55
2020/12/04 07:36:21;;;;;;;0.20;0.10;;;;;;;4.86;100.00;97470.88;5053689;28;20490;-55
2020/12/04 07:38:49;;;;;;;0.20;0.10;;;;;;;4.82;100.00;97476.41;5051792;28;20884;-55
2020/12/04 07:41:39;;;;;;;0.20;0.10;;;;;;;4.80;100.00;97473.84;5042942;28;20504;-55
2020/12/04 07:44:07;;;;;;;0.20;0.10;;;;;;;4.78;100.00;97466.94;5053480;28;20447;-57
2020/12/04 07:46:35;;;;;;;0.20;0.10;;;;;;;4.87;100.00;97479.63;5053384;28;20936;-55
2020/12/04 07:49:16;;;;;;;0.20;0.10;;;;;;;4.93;100.00;97467.00;5041413;28;20462;-55
2020/12/04 07:51:43;;;;;;;0.20;0.10;;;;;;;5.01;100.00;97466.63;5052431;28;20939;-56
2020/12/04 07:54:20;;;;;;;0.20;0.10;;;;;;;4.99;100.00;97465.84;5041566;28;20493;-55
2020/12/04 07:56:54;;;;;;;0.20;0.10;;;;;;;5.04;100.00;97469.94;5053053;28;20801;-55
2020/12/04 07:59:32;;;;;;;0.20;0.10;;;;;;;5.13;100.00;97467.75;5053363;28;20450;-55
2020/12/04 08:02:04;;;;;;;0.20;0.10;;;;;;;5.15;100.00;97479.91;5053256;28;21001;-54
2020/12/04 08:04:31;;;;;;;0.20;0.10;;;;;;;5.22;100.00;97480.47;5053437;28;20883;-55
2020/12/04 08:07:08;;;;;;;0.20;0.20;;;;;;;5.24;100.00;97478.59;5032191;28;20553;-55
2020/12/04 08:09:38;;;;;;;0.20;0.20;;;;;;;5.32;100.00;97481.66;5033535;28;20444;-55
2020/12/04 08:12:10;;;;;;;0.20;0.10;;;;;;;5.37;100.00;97477.00;5033283;28;20517;-55
2020/12/04 08:14:39;;;;;;;0.20;0.10;;;;;;;5.41;100.00;97488.22;5033493;28;20533;-55
2020/12/04 08:17:06;;;;;;;0.20;0.20;;;;;;;5.48;100.00;97486.94;5033223;28;20491;-55
2020/12/04 08:19:35;;;;;;;0.20;0.10;;;;;;;5.49;100.00;97489.53;5033269;28;20451;-55
2020/12/04 08:22:07;;;;;;;0.20;0.10;;;;;;;5.44;100.00;97486.28;5032468;28;20502;-55
2020/12/04 08:24:36;;;;;;;0.20;0.10;;;;;;;5.35;100.00;97487.63;5046659;28;20468;-55
2020/12/04 08:27:05;;;;;;;0.20;0.10;;;;;;;5.47;100.00;97496.63;5044333;28;20889;-56
2020/12/04 08:29:33;;;;;;;0.30;0.20;;;;;;;5.42;100.00;97493.41;5039467;28;20447;-56
2020/12/04 08:32:05;;;;;;;0.20;0.13;;;;;;;5.45;100.00;97498.50;5053064;28;20455;-55
2020/12/04 08:34:33;;;;;;;0.20;0.10;;;;;;;5.50;100.00;97495.66;5052210;28;20824;-55
2020/12/04 08:37:02;;;;;;;0.20;0.20;;;;;;;5.61;100.00;97496.75;5052816;28;20568;-55
2020/12/04 08:39:36;;;;;;;0.20;0.10;;;;;;;5.50;100.00;97499.13;5044833;28;20530;-60
2020/12/04 08:42:20;;;;;;;0.20;0.20;;;;;;;5.51;100.00;97514.00;5047988;28;20481;-55
2020/12/04 08:45:03;;;;;;;0.20;0.10;;;;;;;5.56;100.00;97506.69;5052633;28;20454;-55
2020/12/04 08:47:35;;;;;;;0.20;0.10;;;;;;;5.55;100.00;97505.00;5052944;28;20516;-54
2020/12/04 08:50:06;;;;;;;0.20;0.10;;;;;;;5.53;100.00;97498.97;5052872;28;20909;-54
2020/12/04 08:52:36;;;;;;;0.20;0.17;;;;;;;5.65;100.00;97495.69;5044900;28;20830;-54
2020/12/04 08:55:11;;;;;;;0.20;0.20;;;;;;;5.74;100.00;97501.38;5035129;28;20459;-54
2020/12/04 08:57:38;;;;;;;0.20;0.10;;;;;;;5.77;100.00;97506.50;5037520;28;20490;-54
2020/12/04 09:00:07;;;;;;;0.23;0.20;;;;;;;5.76;100.00;97520.59;5049802;28;20843;-55
2020/12/04 09:02:34;;;;;;;0.20;0.10;;;;;;;5.81;100.00;97529.97;5052975;28;20453;-55
2020/12/04 09:05:03;;;;;;;0.20;0.20;;;;;;;5.78;100.00;97522.22;5052692;28;20827;-54
2020/12/04 09:07:29;;;;;;;0.20;0.20;;;;;;;5.85;100.00;97522.72;5052397;28;20833;-55
2020/12/04 09:09:55;;;;;;;0.20;0.10;;;;;;;5.90;100.00;97523.38;5052452;28;20446;-55
2020/12/04 09:12:24;;;;;;;0.30;0.20;;;;;;;5.86;100.00;97514.72;5052675;28;20501;-55
2020/12/04 09:14:50;;;;;;;0.20;0.10;;;;;;;5.86;100.00;97513.88;5050333;28;20979;-54
2020/12/04 09:17:17;;;;;;;0.30;0.20;;;;;;;5.93;100.00;97520.56;5040006;28;20491;-54
2020/12/04 09:19:45;;;;;;;0.30;0.30;;;;;;;6.02;100.00;97519.19;5051466;28;20457;-55
2020/12/04 09:22:13;;;;;;;0.20;0.10;;;;;;;6.16;100.00;97525.41;5047220;28;20501;-55
2020/12/04 09:24:39;;;;;;;0.30;0.10;;;;;;;6.33;100.00;97526.28;5051887;28;20450;-55
2020/12/04 09:27:06;;;;;;;0.30;0.10;;;;;;;6.43;100.00;97522.16;5052725;28;20843;-55
2020/12/04 09:29:33;;;;;;;0.30;0.20;;;;;;;6.45;100.00;97529.09;5052549;28;20454;-54
2020/12/04 09:32:10;;;;;;;0.30;0.20;;;;;;;6.50;100.00;97537.56;5048632;28;20483;-57
2020/12/04 09:34:37;;;;;;;0.27;0.20;;;;;;;6.50;100.00;97534.09;5040612;28;20439;-55
2020/12/04 09:37:17;;;;;;;0.30;0.20;;;;;;;6.58;100.00;97542.44;5046905;28;20548;-55
2020/12/04 09:39:44;;;;;;;0.30;0.20;;;;;;;6.69;100.00;97547.94;5042950;28;20448;-55
2020/12/04 09:42:12;;;;;;;0.30;0.20;;;;;;;6.72;100.00;97536.38;5048665;28;20485;-55
2020/12/04 09:44:39;;;;;;;0.30;0.20;;;;;;;6.89;100.00;97543.31;5052169;28;20482;-55
2020/12/04 09:47:06;;;;;;;0.40;0.30;;;;;;;6.98;100.00;97538.31;5055276;28;20478;-57
2020/12/04 09:49:32;;;;;;;0.30;0.20;;;;;;;7.16;100.00;97532.91;5055978;28;20442;-56
2020/12/04 09:51:58;;;;;;;0.30;0.20;;;;;;;7.27;100.00;97527.84;5040499;28;20459;-55
2020/12/04 09:54:29;;;;;;;0.30;0.20;;;;;;;7.37;100.00;97529.84;5046635;28;20459;-56
2020/12/04 09:56:57;;;;;;;0.30;0.20;;;;;;;7.37;100.00;97531.63;5055758;28;20502;-56
2020/12/04 09:59:24;;;;;;;0.30;0.20;;;;;;;7.31;100.00;97534.66;5056232;28;20940;-55
2020/12/04 10:01:53;;;;;;;0.30;0.20;;;;;;;7.35;100.00;97534.38;5055704;28;20541;-56
2020/12/04 10:04:20;;;;;;;5.93;1.97;;;;;;;7.45;100.00;97534.66;5055721;28;20947;-53
2020/12/04 10:06:46;;;;;;;0.30;0.20;;;;;;;7.38;100.00;97526.25;5055634;28;20455;-53
2020/12/04 10:09:14;;;;;;;0.30;0.20;;;;;;;7.43;100.00;97512.78;5039988;28;20464;-53
2020/12/04 10:11:41;;;;;;;0.30;0.20;;;;;;;7.45;100.00;97513.53;5054437;28;20450;-54
2020/12/04 10:14:08;;;;;;;0.30;0.20;;;;;;;7.37;100.00;97506.03;5055804;28;20867;-53
2020/12/04 10:16:35;;;;;;;0.30;0.20;;;;;;;7.42;100.00;97500.50;5055210;28;20513;-54
2020/12/04 10:19:01;;;;;;;0.30;0.20;;;;;;;7.39;100.00;97493.59;5055737;28;20848;-54
2020/12/04 10:21:35;;;;;;;0.30;0.20;;;;;;;7.27;100.00;97504.94;5055506;28;20470;-54
2020/12/04 10:24:03;;;;;;;0.30;0.20;;;;;;;7.22;100.00;97506.97;5049549;28;20445;-54
2020/12/04 10:26:38;;;;;;;0.40;0.40;;;;;;;7.27;100.00;97504.94;5051264;28;20451;-54
2020/12/04 10:29:05;;;;;;;0.30;0.20;;;;;;;7.26;100.00;97513.75;5055310;28;20477;-54
2020/12/04 10:31:33;;;;;;;0.30;0.20;;;;;;;7.29;100.00;97510.13;5055500;28;20455;-54
2020/12/04 10:33:59;;;;;;;0.30;0.17;;;;;;;7.20;100.00;97513.28;5055310;28;20454;-54
2020/12/04 10:36:27;;;;;;;0.30;0.20;;;;;;;7.16;100.00;97515.28;5054908;28;20458;-54
2020/12/04 10:38:54;;;;;;;0.30;0.20;;;;;;;7.19;100.00;97508.97;5052185;28;20942;-55
2020/12/04 10:41:21;;;;;;;0.30;0.20;;;;;;;7.17;100.00;97509.06;5045065;28;20447;-54
2020/12/04 10:43:48;;;;;;;0.53;0.53;;;;;;;7.25;100.00;97501.50;5053488;28;20523;-55
2020/12/04 10:46:15;;;;;;;0.80;0.80;;;;;;;7.29;100.00;97494.25;5054838;28;20779;-54
2020/12/04 10:48:41;;;;;;;0.30;0.20;;;;;;;7.28;100.00;97511.91;5055013;28;20479;-54
2020/12/04 10:51:08;;;;;;;0.30;0.20;;;;;;;7.28;100.00;97495.22;5055136;28;21007;-55
2020/12/04 10:53:34;;;;;;;0.30;0.20;;;;;;;7.24;100.00;97513.00;5042334;28;20904;-54
2020/12/04 10:56:01;;;;;;;1.30;1.30;;;;;;;7.26;100.00;97511.13;5054473;28;20454;-54
2020/12/04 10:58:27;;;;;;;0.30;0.20;;;;;;;7.25;100.00;97511.22;5054728;28;20494;-54
2020/12/04 11:00:54;;;;;;;0.30;0.20;;;;;;;7.26;100.00;97510.28;5051478;28;20466;-54
2020/12/04 11:05:47;;;;;;;0.30;0.20;;;;;;;7.34;100.00;97513.31;5054909;28;20447;-54
2020/12/04 11:08:14;;;;;;;0.30;0.20;;;;;;;7.34;100.00;97513.31;5054984;28;20471;-54
2020/12/04 11:10:42;;;;;;;0.30;0.20;;;;;;;7.29;100.00;97520.69;5054046;28;20500;-54
2020/12/04 11:13:09;;;;;;;0.30;0.20;;;;;;;7.27;100.00;97519.94;5054844;28;20462;-54
2020/12/04 11:15:35;;;;;;;0.30;0.10;;;;;;;7.28;100.00;97522.47;5054585;28;20982;-55
2020/12/04 11:18:02;;;;;;;0.30;0.10;;;;;;;7.34;100.00;97529.16;5048532;28;20491;-54
2020/12/04 11:20:28;;;;;;;0.30;0.20;;;;;;;7.15;100.00;97534.72;5045721;28;20454;-54
2020/12/04 11:22:54;;;;;;;0.30;0.20;;;;;;;7.16;100.00;97533.78;5047658;28;20458;-55
2020/12/04 11:25:21;;;;;;;0.30;0.20;;;;;;;7.13;100.00;97533.97;5054278;28;20451;-54
2020/12/04 11:27:49;;;;;;;0.30;0.20;;;;;;;7.20;100.00;97529.16;5054181;28;20540;-54
2020/12/04 11:30:19;;;;;;;0.30;0.20;;;;;;;7.13;100.00;97526.88;5054764;28;20812;-54
2020/12/04 11:32:47;;;;;;;0.30;0.20;;;;;;;7.09;100.00;97524.50;5055040;28;20443;-54
2020/12/04 11:35:15;;;;;;;0.30;0.20;;;;;;;7.10;100.00;97521.75;5041086;28;20460;-55
2020/12/04 11:37:45;;;;;;;0.30;0.20;;;;;;;7.35;100.00;97529.06;5049765;28;20491;-56
2020/12/04 11:40:13;;;;;;;0.30;0.20;;;;;;;7.31;100.00;97522.28;5042373;28;20501;-54
2020/12/04 11:42:41;;;;;;;0.30;0.20;;;;;;;7.30;100.00;97525.88;5042710;28;20447;-55